Terminal Aerodrome Forecast
Issued by NWS Grand Forks, ND

Home | Current Version | Previous Version | Text Only | Print | Product List | Glossary On
Versions: 1 2 3 4 5 6 7 8 9 10 11 12 13 14 15 16 17 18 19 20 21 22
722
FTUS43 KFGF 071133
TAFGFK
TAF
KGFK 071133Z 0712/0812 30029G37KT 1 1/2SM -SN BLSN OVC025
      TEMPO 0712/0716 1SM -SN OVC015
     FM071700 31028G39KT 1 1/2SM -SN BLSN OVC025
      TEMPO 0717/0721 3/4SM -SN OVC015
     FM072100 32027G38KT 1SM -SN BLSN OVC015
     FM080000 31025G35KT P6SM OVC015=

USA.gov is the U.S. government's official web portal to all federal, state and local government web resources and services.